createdAt,value
2024-01-22T00:02:33.469Z,36.42
2024-01-22T00:05:13.534Z,37.17
2024-01-22T00:07:53.399Z,37.40
2024-01-22T00:10:47.424Z,34.90
2024-01-22T00:13:41.416Z,32.60
2024-01-22T00:16:35.413Z,31.17
2024-01-22T00:19:22.469Z,33.60
2024-01-22T00:22:02.447Z,32.72
2024-01-22T00:24:56.424Z,33.10
2024-01-22T00:27:50.403Z,32.00
2024-01-22T00:30:37.413Z,32.83
2024-01-22T00:33:24.514Z,31.02
2024-01-22T00:35:57.809Z,29.27
2024-01-22T00:38:44.456Z,30.02
2024-01-22T00:41:17.775Z,28.42
2024-01-22T00:44:04.413Z,29.17
2024-01-22T00:46:44.424Z,30.08
2024-01-22T00:49:24.612Z,27.65
2024-01-22T00:52:04.427Z,28.10
2024-01-22T00:54:44.606Z,27.42
2024-01-22T00:57:28.430Z,27.80
2024-01-22T01:00:15.482Z,27.35
2024-01-22T01:02:53.935Z,27.02
2024-01-22T01:05:40.430Z,25.85
2024-01-22T01:08:20.429Z,25.40
2024-01-22T01:11:14.456Z,26.75
2024-01-22T01:14:01.437Z,26.92
2024-01-22T01:16:34.533Z,26.38
2024-01-22T01:19:21.525Z,25.92
2024-01-22T01:22:04.409Z,24.20
2024-01-22T01:24:44.821Z,25.95
2024-01-22T01:27:32.483Z,25.95
2024-01-22T01:30:06.465Z,27.55
2024-01-22T01:32:53.608Z,26.60
2024-01-22T01:35:50.474Z,25.45
2024-01-22T01:38:37.462Z,26.85
2024-01-22T01:41:17.540Z,27.13
2024-01-22T01:43:57.455Z,25.60
2024-01-22T01:46:37.650Z,28.02
2024-01-22T01:49:17.546Z,27.25
2024-01-22T01:51:57.559Z,24.13
2024-01-22T01:54:38.445Z,25.80
2024-01-22T01:57:27.588Z,25.15
2024-01-22T02:00:08.804Z,25.42
2024-01-22T02:02:49.610Z,25.10
2024-01-22T02:05:29.499Z,26.35
2024-01-22T02:08:16.457Z,25.17
2024-01-22T02:10:56.460Z,24.48
2024-01-22T02:13:43.445Z,25.75
2024-01-22T02:16:16.904Z,26.45
2024-01-22T02:19:04.672Z,24.98
2024-01-22T02:21:37.783Z,25.65
2024-01-22T02:24:24.473Z,26.45
2024-01-22T02:27:04.564Z,26.02
2024-01-22T02:29:51.490Z,26.30
2024-01-22T02:32:24.868Z,24.60
2024-01-22T02:35:11.454Z,24.50
2024-01-22T02:37:51.480Z,23.40
2024-01-22T02:40:31.546Z,25.50
2024-01-22T02:43:18.491Z,24.80
2024-01-22T02:45:51.553Z,24.92
2024-01-22T02:48:38.644Z,24.08
2024-01-22T02:51:18.630Z,24.60
2024-01-22T02:54:05.551Z,24.42
2024-01-22T02:56:38.792Z,23.80
2024-01-22T02:59:26.530Z,26.08
2024-01-22T03:02:06.477Z,24.10
2024-01-22T03:04:53.470Z,23.45
2024-01-22T03:07:26.590Z,24.75
2024-01-22T03:10:20.481Z,24.13
2024-01-22T03:13:14.466Z,24.20
2024-01-22T03:16:01.486Z,24.05
2024-01-22T03:18:34.738Z,26.00
2024-01-22T03:21:16.011Z,24.13
2024-01-22T03:23:56.598Z,24.83
2024-01-22T03:26:36.490Z,25.73
2024-01-22T03:29:16.476Z,25.95
2024-01-22T03:31:56.458Z,24.02
2024-01-22T03:34:36.877Z,26.38
2024-01-22T03:37:23.478Z,25.33
2024-01-22T03:39:56.813Z,26.45
2024-01-22T03:42:43.474Z,25.20
2024-01-22T03:45:16.988Z,24.95
2024-01-22T03:48:03.634Z,24.85
2024-01-22T03:50:43.670Z,23.77
2024-01-22T03:53:30.457Z,25.20
2024-01-22T03:56:05.514Z,25.15
2024-01-22T03:58:53.458Z,22.10
2024-01-22T04:01:26.873Z,23.40
2024-01-22T04:04:13.531Z,23.95
2024-01-22T04:06:53.620Z,22.63
2024-01-22T04:09:33.616Z,22.52
2024-01-22T04:12:13.578Z,23.33
2024-01-22T04:15:00.557Z,21.38
2024-01-22T04:17:33.935Z,23.48
2024-01-22T04:20:21.497Z,24.20
2024-01-22T04:23:01.485Z,24.25
2024-01-22T04:25:41.655Z,23.85
2024-01-22T04:28:22.532Z,24.20
2024-01-22T04:31:02.655Z,23.35
2024-01-22T04:33:42.688Z,23.33
2024-01-22T04:36:22.650Z,22.35
2024-01-22T04:39:02.509Z,23.65
2024-01-22T04:41:49.525Z,21.80
2024-01-22T04:44:29.490Z,23.10
2024-01-22T04:47:16.494Z,23.38
2024-01-22T04:49:49.839Z,23.48
2024-01-22T04:52:36.497Z,24.25
2024-01-22T04:55:21.007Z,24.00
2024-01-22T04:58:02.629Z,23.40
2024-01-22T05:00:42.571Z,24.60
2024-01-22T05:03:22.722Z,25.90
2024-01-22T05:06:02.633Z,27.60
2024-01-22T05:08:49.539Z,27.33
2024-01-22T05:11:23.026Z,27.05
2024-01-22T05:14:10.497Z,26.73
2024-01-22T05:16:43.822Z,24.38
2024-01-22T05:19:30.550Z,24.60
2024-01-22T05:22:04.004Z,23.27
2024-01-22T05:24:50.531Z,26.40
2024-01-22T05:27:32.499Z,24.42
2024-01-22T05:30:20.614Z,23.58
2024-01-22T05:33:00.544Z,24.10
2024-01-22T05:35:47.516Z,22.65
2024-01-22T05:38:21.003Z,25.50
2024-01-22T05:41:07.534Z,25.33
2024-01-22T05:43:47.541Z,22.90
2024-01-22T05:46:27.641Z,26.05
2024-01-22T05:49:07.567Z,25.98
2024-01-22T05:51:48.685Z,28.67
2024-01-22T05:54:35.497Z,25.75
2024-01-22T05:57:29.525Z,27.83
2024-01-22T06:00:17.574Z,31.83
2024-01-22T06:02:50.875Z,31.45
2024-01-22T06:05:37.666Z,32.22
2024-01-22T06:08:20.520Z,30.15
2024-01-22T06:11:14.521Z,28.88
2024-01-22T06:14:02.766Z,31.27
2024-01-22T06:16:43.513Z,27.95
2024-01-22T06:19:37.565Z,29.65
2024-01-22T06:22:26.502Z,27.35
2024-01-22T06:25:01.376Z,26.08
2024-01-22T06:27:51.514Z,29.23
2024-01-22T06:30:31.566Z,27.13
2024-01-22T06:33:18.702Z,27.15
2024-01-22T06:35:52.678Z,29.33
2024-01-22T06:38:39.644Z,31.25
2024-01-22T06:41:30.496Z,28.73
2024-01-22T06:44:17.538Z,27.20
2024-01-22T06:46:50.628Z,26.98
2024-01-22T06:49:37.705Z,29.05
2024-01-22T06:52:18.583Z,27.98
2024-01-22T06:55:12.523Z,28.35
2024-01-22T06:58:06.583Z,29.58
2024-01-22T07:00:53.584Z,28.00
2024-01-22T07:03:30.405Z,28.88
2024-01-22T07:06:17.653Z,28.50
2024-01-22T07:08:50.631Z,28.27
2024-01-22T07:11:44.621Z,29.88
2024-01-22T07:14:39.586Z,28.92
2024-01-22T07:17:29.582Z,32.42
2024-01-22T07:20:02.637Z,29.35
2024-01-22T07:22:50.577Z,29.48
2024-01-22T07:25:25.440Z,32.60
2024-01-22T07:28:12.548Z,30.33
2024-01-22T07:30:45.793Z,28.75
2024-01-22T07:33:32.742Z,32.70
2024-01-22T07:36:12.613Z,34.03
2024-01-22T07:39:02.636Z,33.20
2024-01-22T07:41:35.737Z,32.85
2024-01-22T07:44:22.586Z,31.10
2024-01-22T07:46:55.647Z,33.50
2024-01-22T07:49:42.618Z,30.80
2024-01-22T07:52:23.575Z,28.13
2024-01-22T07:55:11.596Z,26.63
2024-01-22T07:57:51.585Z,23.48
2024-01-22T08:00:40.575Z,23.77
2024-01-22T08:03:20.607Z,23.70
2024-01-22T08:06:14.637Z,24.75
2024-01-22T08:09:01.686Z,25.80
2024-01-22T08:11:34.652Z,24.90
2024-01-22T08:14:21.638Z,24.00
2024-01-22T08:16:55.722Z,23.23
2024-01-22T08:19:42.588Z,23.65
2024-01-22T08:22:15.691Z,22.35
2024-01-22T08:25:02.558Z,22.90
2024-01-22T08:27:42.577Z,23.80
2024-01-22T08:30:29.593Z,22.52
2024-01-22T08:33:02.778Z,21.50
2024-01-22T08:35:49.734Z,23.27
2024-01-22T08:38:29.590Z,21.50
2024-01-22T08:41:23.595Z,20.23
2024-01-22T08:44:17.612Z,23.00
2024-01-22T08:47:04.603Z,22.10
2024-01-22T08:49:44.604Z,21.83
2024-01-22T08:52:31.591Z,20.80
2024-01-22T08:55:13.593Z,21.05
2024-01-22T08:58:01.600Z,20.67
2024-01-22T09:00:34.771Z,21.92
2024-01-22T09:03:21.629Z,18.80
2024-01-22T09:05:54.759Z,21.25
2024-01-22T09:08:41.611Z,27.88
2024-01-22T09:11:14.752Z,21.90
2024-01-22T09:14:01.651Z,22.30
2024-01-22T09:16:34.749Z,20.77
2024-01-22T09:19:21.790Z,23.45
2024-01-22T09:22:08.615Z,20.50
2024-01-22T09:24:41.966Z,20.88
2024-01-22T09:27:28.673Z,22.58
2024-01-22T09:30:02.142Z,22.20
2024-01-22T09:32:48.801Z,21.05
2024-01-22T09:35:22.031Z,20.95
2024-01-22T09:38:08.604Z,22.27
2024-01-22T09:40:48.713Z,21.85
2024-01-22T09:43:29.618Z,20.13
2024-01-22T09:46:10.278Z,19.52
2024-01-22T09:48:49.887Z,21.58
2024-01-22T09:51:29.611Z,19.30
2024-01-22T09:54:09.809Z,20.63
2024-01-22T09:57:01.642Z,18.55
2024-01-22T09:59:36.796Z,19.75
2024-01-22T10:02:24.623Z,19.67
2024-01-22T10:05:06.011Z,20.20
2024-01-22T10:07:52.786Z,18.48
2024-01-22T10:10:26.731Z,18.27
2024-01-22T10:13:15.636Z,18.38
2024-01-22T10:15:49.412Z,16.45
2024-01-22T10:18:36.725Z,19.42
2024-01-22T10:21:10.811Z,18.30
2024-01-22T10:24:07.648Z,18.13
2024-01-22T10:26:49.686Z,16.52
2024-01-22T10:29:36.651Z,19.02
2024-01-22T10:32:09.725Z,16.65
2024-01-22T10:35:00.659Z,19.75
2024-01-22T10:37:33.754Z,18.02
2024-01-22T10:40:20.630Z,17.58
2024-01-22T10:42:53.683Z,18.13
2024-01-22T10:45:40.675Z,16.38
2024-01-22T10:48:20.578Z,14.82
2024-01-22T10:51:14.880Z,18.15
2024-01-22T10:53:55.706Z,15.70
2024-01-22T10:56:52.652Z,18.67
2024-01-22T10:59:53.680Z,16.73
2024-01-22T11:02:49.722Z,19.30
2024-01-22T11:05:47.809Z,16.20
2024-01-22T11:08:50.699Z,17.00
2024-01-22T11:11:46.665Z,16.30
2024-01-22T11:14:40.650Z,17.88
2024-01-22T11:17:34.681Z,18.52
2024-01-22T11:20:28.773Z,22.67
2024-01-22T11:23:16.638Z,23.88
2024-01-22T11:26:18.752Z,24.30
2024-01-22T11:29:24.635Z,17.70
2024-01-22T11:32:34.665Z,20.55
2024-01-22T11:35:21.422Z,18.25
2024-01-22T11:38:23.634Z,18.95
2024-01-22T11:41:11.695Z,18.88
2024-01-22T11:43:44.740Z,16.27
2024-01-22T11:46:33.657Z,15.88
2024-01-22T11:49:16.863Z,17.40
2024-01-22T11:52:03.645Z,19.55
2024-01-22T11:54:44.656Z,16.55
2024-01-22T11:57:44.491Z,15.48
2024-01-22T12:00:33.906Z,16.60
2024-01-22T12:03:18.697Z,16.42
2024-01-22T12:06:12.810Z,19.50
2024-01-22T12:09:02.726Z,16.17
2024-01-22T12:11:50.765Z,16.20
2024-01-22T12:14:44.648Z,18.10
2024-01-22T12:17:38.688Z,19.10
2024-01-22T12:20:27.739Z,18.80
2024-01-22T12:23:05.992Z,17.02
2024-01-22T12:25:54.172Z,16.33
2024-01-22T12:28:28.909Z,18.80
2024-01-22T12:31:16.677Z,23.70
2024-01-22T12:33:57.718Z,18.15
2024-01-22T12:36:51.659Z,17.90
2024-01-22T12:39:38.657Z,17.90
2024-01-22T12:42:18.760Z,20.40
2024-01-22T12:45:06.726Z,17.15
2024-01-22T12:47:46.860Z,18.20
2024-01-22T12:50:40.725Z,19.08
2024-01-22T12:53:34.843Z,17.67
2024-01-22T12:56:21.715Z,17.90
2024-01-22T12:58:55.821Z,14.75
2024-01-22T13:01:42.693Z,13.23
2024-01-22T13:04:24.685Z,16.75
2024-01-22T13:07:18.751Z,15.15
2024-01-22T13:10:05.687Z,15.85
2024-01-22T13:12:45.666Z,18.52
2024-01-22T13:15:33.804Z,15.88
2024-01-22T13:18:07.846Z,17.15
2024-01-22T13:20:57.713Z,16.42
2024-01-22T13:23:37.682Z,16.20
2024-01-22T13:26:31.684Z,16.77
2024-01-22T13:29:25.688Z,17.52
2024-01-22T13:32:12.677Z,16.30
2024-01-22T13:34:52.765Z,20.40
2024-01-22T13:37:41.669Z,18.52
2024-01-22T13:40:17.456Z,18.02
2024-01-22T13:43:04.695Z,16.48
2024-01-22T13:45:37.902Z,19.55
2024-01-22T13:48:24.866Z,26.15
2024-01-22T13:51:05.715Z,28.90
2024-01-22T13:53:59.767Z,30.98
2024-01-22T13:56:46.699Z,28.83
2024-01-22T13:59:19.820Z,29.08
2024-01-22T14:02:06.681Z,27.42
2024-01-22T14:04:42.575Z,19.05
2024-01-22T14:07:29.714Z,20.42
2024-01-22T14:10:02.935Z,17.83
2024-01-22T14:12:56.752Z,20.52
2024-01-22T14:15:44.711Z,18.95
2024-01-22T14:18:25.844Z,17.35
2024-01-22T14:21:20.784Z,19.88
2024-01-22T14:24:15.740Z,20.08
2024-01-22T14:27:04.653Z,19.77
2024-01-22T14:29:45.756Z,19.02
2024-01-22T14:32:35.673Z,20.65
2024-01-22T14:35:16.737Z,19.20
2024-01-22T14:38:03.688Z,20.67
2024-01-22T14:40:43.717Z,19.17
2024-01-22T14:43:40.677Z,21.10
2024-01-22T14:46:34.706Z,21.13
2024-01-22T14:49:28.781Z,20.77
2024-01-22T14:52:15.757Z,21.85
2024-01-22T14:54:56.692Z,20.85
2024-01-22T14:57:43.743Z,21.55
2024-01-22T15:00:18.377Z,21.85
2024-01-22T15:03:05.907Z,22.50
2024-01-22T15:05:52.808Z,22.55
2024-01-22T15:08:32.731Z,22.40
2024-01-22T15:11:19.736Z,21.52
2024-01-22T15:14:13.706Z,20.95
2024-01-22T15:17:01.711Z,19.55
2024-01-22T15:19:42.755Z,20.00
2024-01-22T15:22:36.701Z,20.67
2024-01-22T15:25:30.744Z,21.10
2024-01-22T15:28:17.803Z,20.45
2024-01-22T15:31:04.746Z,20.90
2024-01-22T15:33:44.880Z,19.77
2024-01-22T15:36:31.742Z,18.98
2024-01-22T15:39:12.749Z,21.00
2024-01-22T15:41:52.816Z,23.23
2024-01-22T15:44:32.757Z,19.75
2024-01-22T15:47:12.854Z,20.33
2024-01-22T15:49:52.750Z,17.95
2024-01-22T15:52:39.733Z,21.08
2024-01-22T15:55:13.078Z,23.65
2024-01-22T15:57:59.793Z,21.60
2024-01-22T16:00:53.744Z,28.13
2024-01-22T16:03:40.836Z,33.38
2024-01-22T16:06:21.923Z,26.70
2024-01-22T16:09:02.115Z,21.20
2024-01-22T16:11:48.797Z,19.88
2024-01-22T16:14:35.725Z,23.33
2024-01-22T16:17:16.751Z,19.63
2024-01-22T16:20:10.783Z,19.40
2024-01-22T16:22:58.731Z,23.20
2024-01-22T16:25:31.817Z,22.65
2024-01-22T16:28:18.782Z,21.80
2024-01-22T16:30:51.897Z,22.27
2024-01-22T16:33:39.877Z,21.20
2024-01-22T16:36:23.355Z,23.20
2024-01-22T16:39:03.768Z,19.13
2024-01-22T16:41:50.803Z,21.00
2024-01-22T16:44:30.752Z,18.55
2024-01-22T16:47:17.748Z,17.25
2024-01-22T16:49:57.829Z,18.85
2024-01-22T16:52:37.858Z,19.55
2024-01-22T16:55:17.768Z,18.85
2024-01-22T16:58:04.754Z,18.38
2024-01-22T17:00:38.455Z,19.73
2024-01-22T17:03:25.850Z,20.30
2024-01-22T17:05:59.239Z,18.15
2024-01-22T17:08:45.766Z,20.27
2024-01-22T17:11:26.738Z,18.13
2024-01-22T17:14:20.727Z,19.95
2024-01-22T17:17:14.914Z,21.75
2024-01-22T17:20:02.734Z,21.75
2024-01-22T17:22:37.244Z,19.73
2024-01-22T17:25:23.745Z,20.92
2024-01-22T17:28:03.766Z,21.70
2024-01-22T17:30:51.774Z,21.48
2024-01-22T17:33:24.985Z,28.70
2024-01-22T17:36:13.780Z,26.25
2024-01-22T17:38:53.760Z,22.17
2024-01-22T17:41:40.900Z,21.20
2024-01-22T17:44:13.993Z,23.85
2024-01-22T17:47:01.784Z,27.90
2024-01-22T17:49:35.045Z,21.40
2024-01-22T17:52:21.760Z,22.15
2024-01-22T17:55:01.811Z,20.25
2024-01-22T17:57:56.766Z,20.80
2024-01-22T18:00:43.850Z,23.85
2024-01-22T18:03:24.862Z,25.00
2024-01-22T18:06:18.811Z,22.77
2024-01-22T18:09:05.822Z,25.52
2024-01-22T18:11:46.461Z,31.90
2024-01-22T18:14:40.755Z,24.38
2024-01-22T18:17:27.796Z,22.77
2024-01-22T18:20:07.801Z,20.90
2024-01-22T18:22:54.805Z,19.73
2024-01-22T18:25:34.744Z,19.90
2024-01-22T18:28:28.765Z,20.92
2024-01-22T18:31:15.772Z,22.67
2024-01-22T18:34:02.847Z,19.73
2024-01-22T18:36:46.791Z,21.60
2024-01-22T18:39:34.307Z,20.85
2024-01-22T18:42:09.791Z,21.55
2024-01-22T18:44:56.885Z,24.50
2024-01-22T18:47:33.090Z,21.30
2024-01-22T18:50:19.795Z,20.55
2024-01-22T18:52:53.233Z,21.00
2024-01-22T18:55:39.798Z,19.65
2024-01-22T18:58:13.142Z,22.33
2024-01-22T19:00:59.816Z,20.60
2024-01-22T19:03:34.508Z,23.48
2024-01-22T19:06:21.906Z,21.27
2024-01-22T19:09:01.842Z,21.30
2024-01-22T19:11:41.934Z,23.10
2024-01-22T19:14:21.782Z,22.13
2024-01-22T19:17:03.417Z,21.63
2024-01-22T19:19:43.871Z,22.50
2024-01-22T19:22:23.928Z,24.35
2024-01-22T19:25:03.811Z,24.17
2024-01-22T19:27:50.776Z,25.35
2024-01-22T19:30:37.862Z,23.55
2024-01-22T19:33:24.919Z,24.50
2024-01-22T19:35:57.911Z,24.35
2024-01-22T19:38:44.817Z,26.13
2024-01-22T19:41:18.508Z,30.77
2024-01-22T19:44:04.801Z,28.13
2024-01-22T19:46:37.902Z,23.42
2024-01-22T19:49:24.828Z,23.42
2024-01-22T19:51:57.962Z,22.65
2024-01-22T19:54:44.973Z,26.08
2024-01-22T19:57:17.972Z,23.95
2024-01-22T20:00:04.813Z,22.13
2024-01-22T20:02:37.913Z,24.58
2024-01-22T20:05:24.825Z,25.45
2024-01-22T20:07:57.926Z,24.15
2024-01-22T20:10:44.857Z,28.85
2024-01-22T20:13:24.826Z,25.48
2024-01-22T20:16:18.800Z,22.10
2024-01-22T20:19:05.893Z,26.77
2024-01-22T20:21:38.960Z,21.48
2024-01-22T20:24:25.877Z,22.80
2024-01-22T20:26:58.917Z,23.17
2024-01-22T20:29:46.841Z,25.42
2024-01-22T20:32:20.983Z,25.20
2024-01-22T20:35:07.965Z,29.77
2024-01-22T20:37:54.929Z,35.67
2024-01-22T20:40:34.819Z,26.30
2024-01-22T20:43:14.956Z,26.88
2024-01-22T20:45:54.821Z,38.30
2024-01-22T20:48:41.969Z,25.27
2024-01-22T20:51:15.399Z,26.83
2024-01-22T20:54:01.855Z,28.08
2024-01-22T20:56:35.191Z,26.88
2024-01-22T20:59:21.828Z,27.83
2024-01-22T21:01:55.159Z,24.10
2024-01-22T21:04:41.839Z,25.45
2024-01-22T21:07:21.912Z,24.67
2024-01-22T21:10:01.953Z,25.85
2024-01-22T21:12:41.831Z,22.50
2024-01-22T21:15:28.881Z,21.77
2024-01-22T21:18:08.973Z,26.13
2024-01-22T21:20:49.923Z,27.35
2024-01-22T21:23:29.846Z,27.45
2024-01-22T21:26:21.043Z,26.88
2024-01-22T21:29:00.867Z,24.33
2024-01-22T21:31:40.967Z,24.92
2024-01-22T21:34:20.879Z,24.58
2024-01-22T21:37:07.839Z,22.77
2024-01-22T21:39:42.344Z,23.02
2024-01-22T21:42:28.948Z,24.05
2024-01-22T21:45:02.322Z,24.23
2024-01-22T21:47:49.028Z,23.30
2024-01-22T21:50:22.270Z,22.42
2024-01-22T21:53:08.823Z,23.50
2024-01-22T21:55:48.847Z,23.98
2024-01-22T21:58:28.937Z,23.50
2024-01-22T22:01:08.925Z,23.67
2024-01-22T22:03:49.059Z,21.70
2024-01-22T22:06:28.900Z,24.33
2024-01-22T22:09:09.263Z,24.15
2024-01-22T22:11:50.862Z,23.67
2024-01-22T22:14:44.850Z,23.20
2024-01-22T22:17:39.063Z,23.52
2024-01-22T22:20:25.873Z,22.20
2024-01-22T22:23:05.834Z,24.10
2024-01-22T22:25:52.826Z,23.38
2024-01-22T22:28:32.865Z,26.17
2024-01-22T22:31:26.848Z,24.23
2024-01-22T22:34:16.040Z,23.73
2024-01-22T22:36:50.232Z,23.65
2024-01-22T22:39:36.856Z,24.77
2024-01-22T22:42:10.973Z,25.15
2024-01-22T22:44:57.879Z,24.00
2024-01-22T22:47:30.960Z,24.58
2024-01-22T22:50:17.847Z,25.85
2024-01-22T22:52:50.948Z,26.98
2024-01-22T22:55:37.847Z,26.85
2024-01-22T22:58:11.183Z,29.08
2024-01-22T23:00:57.969Z,28.35
2024-01-22T23:03:38.142Z,27.08
2024-01-22T23:06:17.899Z,27.27
2024-01-22T23:09:04.887Z,31.42
2024-01-22T23:11:38.193Z,30.13
2024-01-22T23:14:24.852Z,31.23
2024-01-22T23:17:04.851Z,28.75
2024-01-22T23:19:45.868Z,25.55
2024-01-22T23:22:25.862Z,24.30
2024-01-22T23:25:05.939Z,23.23
2024-01-22T23:27:45.863Z,25.05
2024-01-22T23:30:32.909Z,24.55
2024-01-22T23:33:12.962Z,25.20
2024-01-22T23:35:53.002Z,25.02
2024-01-22T23:38:32.884Z,23.27
2024-01-22T23:41:13.138Z,23.60
2024-01-22T23:43:52.850Z,25.48
2024-01-22T23:46:32.972Z,24.20
2024-01-22T23:49:13.921Z,25.10
2024-01-22T23:51:53.989Z,24.98
2024-01-22T23:54:33.930Z,24.38
2024-01-22T23:57:15.013Z,25.25
2024-01-22T23:59:54.872Z,24.42
